createdAt,value
2019-05-28T00:00:24.567Z,19.17
2019-05-28T00:02:58.851Z,20.87
2019-05-28T00:05:33.469Z,22.40
2019-05-28T00:08:08.885Z,25.77
2019-05-28T00:10:43.158Z,18.33
2019-05-28T00:13:15.565Z,18.47
2019-05-28T00:15:50.497Z,19.03
2019-05-28T00:18:27.909Z,16.40
2019-05-28T00:21:01.648Z,36.53
2019-05-28T00:23:36.831Z,26.83
2019-05-28T00:26:12.813Z,18.63
2019-05-28T00:28:48.431Z,20.23
2019-05-28T00:31:22.902Z,16.70
2019-05-28T00:33:57.206Z,23.40
2019-05-28T00:36:31.249Z,23.77
2019-05-28T00:39:06.945Z,18.17
2019-05-28T00:41:41.377Z,32.40
2019-05-28T00:44:16.341Z,23.80
2019-05-28T00:46:49.666Z,23.37
2019-05-28T00:49:23.021Z,20.43
2019-05-28T00:51:56.482Z,16.53
2019-05-28T00:54:30.829Z,13.03
2019-05-28T00:57:07.141Z,30.70
2019-05-28T00:59:41.707Z,16.27
2019-05-28T01:02:15.575Z,18.63
2019-05-28T01:04:49.256Z,19.13
2019-05-28T01:07:23.171Z,20.30
2019-05-28T01:09:57.116Z,22.90
2019-05-28T01:12:35.734Z,20.40
2019-05-28T01:15:10.168Z,26.10
2019-05-28T01:17:44.573Z,24.43
2019-05-28T01:20:19.302Z,15.23
2019-05-28T01:22:52.868Z,15.60
2019-05-28T01:25:26.129Z,12.10
2019-05-28T01:28:01.025Z,13.43
2019-05-28T01:30:53.968Z,15.00
2019-05-28T01:33:16.050Z,19.13
2019-05-28T01:35:50.001Z,10.27
2019-05-28T01:38:23.049Z,13.13
2019-05-28T01:40:55.819Z,14.67
2019-05-28T01:43:29.507Z,26.70
2019-05-28T01:46:03.469Z,19.77
2019-05-28T01:48:36.737Z,41.03
2019-05-28T01:51:10.493Z,41.13
2019-05-28T01:53:43.671Z,31.23
2019-05-28T01:56:21.100Z,19.47
2019-05-28T01:58:54.780Z,35.60
2019-05-28T02:01:29.618Z,22.93
2019-05-28T02:04:04.300Z,10.27
2019-05-28T02:06:38.632Z,9.10
2019-05-28T02:09:14.681Z,5.70
2019-05-28T02:11:49.487Z,7.77
2019-05-28T02:14:23.150Z,10.97
2019-05-28T02:16:56.840Z,12.27
2019-05-28T02:19:30.858Z,12.33
2019-05-28T02:22:05.026Z,9.37
2019-05-28T02:24:41.334Z,13.70
2019-05-28T02:27:15.926Z,17.97
2019-05-28T02:29:49.801Z,10.37
2019-05-28T02:32:25.052Z,35.07
2019-05-28T02:34:58.925Z,29.07
2019-05-28T02:37:33.699Z,24.60
2019-05-28T02:40:07.241Z,15.17
2019-05-28T02:42:46.077Z,18.53
2019-05-28T02:45:22.278Z,16.00
2019-05-28T02:47:56.567Z,15.43
2019-05-28T02:50:59.150Z,22.00
2019-05-28T02:53:34.558Z,22.90
2019-05-28T02:56:08.361Z,20.97
2019-05-28T02:58:43.195Z,58.03
2019-05-28T03:01:16.294Z,66.83
2019-05-28T03:03:51.729Z,27.10
2019-05-28T03:06:27.117Z,26.33
2019-05-28T03:09:04.767Z,65.70
2019-05-28T03:11:39.324Z,44.03
2019-05-28T03:14:14.149Z,60.17
2019-05-28T03:16:50.637Z,76.13
2019-05-28T03:19:28.113Z,53.47
2019-05-28T03:22:03.400Z,40.93
2019-05-28T03:24:39.273Z,40.30
2019-05-28T03:27:13.202Z,53.73
2019-05-28T03:29:47.641Z,31.93
2019-05-28T03:32:22.961Z,44.40
2019-05-28T03:34:56.338Z,32.27
2019-05-28T03:37:31.674Z,39.97
2019-05-28T03:40:07.714Z,44.67
2019-05-28T03:42:42.422Z,36.00
2019-05-28T03:45:19.011Z,42.73
2019-05-28T03:47:53.465Z,61.43
2019-05-28T03:50:27.987Z,55.43
2019-05-28T03:53:02.031Z,61.10
2019-05-28T03:55:35.856Z,46.93
2019-05-28T03:58:10.204Z,41.73
2019-05-28T04:00:44.558Z,36.03
2019-05-28T04:03:19.811Z,49.27
2019-05-28T04:05:53.569Z,49.50
2019-05-28T04:08:27.080Z,40.80
2019-05-28T04:11:00.957Z,19.40
2019-05-28T04:13:34.920Z,18.17
2019-05-28T04:16:08.836Z,47.17
2019-05-28T04:18:42.735Z,33.73
2019-05-28T04:21:16.618Z,22.80
2019-05-28T04:23:50.012Z,38.23
2019-05-28T04:26:24.381Z,40.17
2019-05-28T04:28:58.375Z,46.00
2019-05-28T04:31:32.620Z,33.67
2019-05-28T04:34:07.291Z,31.50
2019-05-28T04:36:41.174Z,61.67
2019-05-28T04:39:15.270Z,55.47
2019-05-28T04:41:47.939Z,36.57
2019-05-28T04:44:22.101Z,35.23
2019-05-28T04:46:55.828Z,34.07
2019-05-28T04:49:29.580Z,63.10
2019-05-28T04:52:04.387Z,35.20
2019-05-28T04:54:38.266Z,72.27
2019-05-28T04:57:14.260Z,44.10
2019-05-28T04:59:48.881Z,50.30
2019-05-28T05:02:23.391Z,58.57
2019-05-28T05:04:57.703Z,57.40
2019-05-28T05:07:31.968Z,59.80
2019-05-28T05:10:07.788Z,51.10
2019-05-28T05:12:43.372Z,40.13
2019-05-28T05:15:18.205Z,36.30
2019-05-28T05:17:53.320Z,47.43
2019-05-28T05:20:27.084Z,61.90
2019-05-28T05:23:02.051Z,55.77
2019-05-28T05:25:38.069Z,28.87
2019-05-28T05:28:17.417Z,71.57
2019-05-28T05:30:51.748Z,49.23
2019-05-28T05:33:27.944Z,60.97
2019-05-28T05:36:03.772Z,70.53
2019-05-28T05:38:37.900Z,44.40
2019-05-28T05:41:15.470Z,62.33
2019-05-28T05:43:51.376Z,65.23
2019-05-28T05:46:29.430Z,73.03
2019-05-28T05:49:06.814Z,53.07
2019-05-28T05:51:45.431Z,67.77
2019-05-28T05:54:20.259Z,65.97
2019-05-28T05:56:56.477Z,74.23
2019-05-28T05:59:33.547Z,68.37
2019-05-28T06:02:17.286Z,74.27
2019-05-28T06:04:53.472Z,71.00
2019-05-28T06:07:29.314Z,49.80
2019-05-28T06:10:06.786Z,49.97
2019-05-28T06:12:42.034Z,40.03
2019-05-28T06:15:20.476Z,55.60
2019-05-28T06:17:58.229Z,60.60
2019-05-28T06:20:33.042Z,60.37
2019-05-28T06:23:19.807Z,43.63
2019-05-28T06:25:55.084Z,26.53
2019-05-28T06:28:34.483Z,37.37
2019-05-28T06:31:12.918Z,40.33
2019-05-28T06:33:56.767Z,45.13
2019-05-28T06:36:32.764Z,24.53
2019-05-28T06:39:19.564Z,10.07
2019-05-28T06:42:03.534Z,21.87
2019-05-28T06:44:48.568Z,21.50
2019-05-28T06:47:30.123Z,22.33
2019-05-28T06:50:14.486Z,39.33
2019-05-28T06:52:56.152Z,38.20
2019-05-28T06:55:32.757Z,11.90
2019-05-28T06:58:14.437Z,9.93
2019-05-28T07:01:03.353Z,12.57
2019-05-28T07:03:38.156Z,11.57
2019-05-28T07:06:22.274Z,15.33
2019-05-28T07:09:05.928Z,26.97
2019-05-28T07:11:42.907Z,33.47
2019-05-28T07:14:21.440Z,11.57
2019-05-28T07:16:54.374Z,22.53
2019-05-28T07:19:43.741Z,21.50
2019-05-28T07:22:17.549Z,27.23
2019-05-28T07:25:19.766Z,27.77
2019-05-28T07:28:11.070Z,34.43
2019-05-28T07:31:06.768Z,17.67
2019-05-28T07:33:41.652Z,22.17
2019-05-28T07:36:16.866Z,28.17
2019-05-28T07:38:50.727Z,10.97
2019-05-28T07:41:24.786Z,28.00
2019-05-28T07:44:10.024Z,31.50
2019-05-28T07:46:53.900Z,18.93
2019-05-28T07:49:28.420Z,17.07
2019-05-28T07:52:04.912Z,17.37
2019-05-28T07:54:39.718Z,13.07
2019-05-28T07:57:14.038Z,21.13
2019-05-28T07:59:48.007Z,15.90
2019-05-28T08:02:21.051Z,23.00
2019-05-28T08:04:54.398Z,10.23
2019-05-28T08:07:27.999Z,21.13
2019-05-28T08:10:09.956Z,25.57
2019-05-28T08:12:46.036Z,20.77
2019-05-28T08:15:19.648Z,22.43
2019-05-28T08:17:53.023Z,28.43
2019-05-28T08:20:27.124Z,19.50
2019-05-28T08:23:00.356Z,19.77
2019-05-28T08:25:47.027Z,8.00
2019-05-28T08:28:20.213Z,14.07
2019-05-28T08:31:14.190Z,13.63
2019-05-28T08:33:41.830Z,17.60
2019-05-28T08:36:18.525Z,16.93
2019-05-28T08:38:57.570Z,16.20
2019-05-28T08:41:31.707Z,24.43
2019-05-28T08:44:08.048Z,12.23
2019-05-28T08:46:42.279Z,18.17
2019-05-28T08:49:16.519Z,13.50
2019-05-28T08:51:49.906Z,30.20
2019-05-28T08:54:24.724Z,20.13
2019-05-28T08:56:58.846Z,14.43
2019-05-28T08:59:32.661Z,12.87
2019-05-28T09:02:06.716Z,14.63
2019-05-28T09:04:41.683Z,9.57
2019-05-28T09:07:14.915Z,9.30
2019-05-28T09:10:05.556Z,21.43
2019-05-28T09:12:42.402Z,13.80
2019-05-28T09:15:16.598Z,10.50
2019-05-28T09:17:51.827Z,13.63
2019-05-28T09:20:25.081Z,21.13
2019-05-28T09:22:58.895Z,14.40
2019-05-28T09:25:32.015Z,13.57
2019-05-28T09:28:05.252Z,17.30
2019-05-28T09:30:38.737Z,18.20
2019-05-28T09:33:12.228Z,24.10
2019-05-28T09:36:06.311Z,27.40
2019-05-28T09:38:22.969Z,12.13
2019-05-28T09:41:05.877Z,16.93
2019-05-28T09:43:40.440Z,14.07
2019-05-28T09:46:21.464Z,16.53
2019-05-28T09:48:54.586Z,15.50
2019-05-28T09:51:37.049Z,17.03
2019-05-28T09:54:42.064Z,21.33
2019-05-28T09:57:14.661Z,11.53
2019-05-28T09:59:49.361Z,14.57
2019-05-28T10:02:22.673Z,10.37
2019-05-28T10:05:04.708Z,15.33
2019-05-28T10:07:40.279Z,12.60
2019-05-28T10:10:28.667Z,14.97
2019-05-28T10:13:02.345Z,41.33
2019-05-28T10:15:54.612Z,30.67
2019-05-28T10:18:29.363Z,7.87
2019-05-28T10:21:16.871Z,23.10
2019-05-28T10:23:40.617Z,9.97
2019-05-28T10:26:17.981Z,18.27
2019-05-28T10:28:56.516Z,23.67
2019-05-28T10:31:31.451Z,14.23
2019-05-28T10:34:05.539Z,12.03
2019-05-28T10:36:47.950Z,23.73
2019-05-28T10:39:22.356Z,22.00
2019-05-28T10:41:59.364Z,20.60
2019-05-28T10:44:34.925Z,23.80
2019-05-28T10:47:15.013Z,20.90
2019-05-28T10:49:50.835Z,23.20
2019-05-28T10:52:25.811Z,31.77
2019-05-28T10:55:02.557Z,24.27
2019-05-28T10:57:35.635Z,9.90
2019-05-28T11:00:09.720Z,11.97
2019-05-28T11:02:44.711Z,16.67
2019-05-28T11:05:26.102Z,18.33
2019-05-28T11:08:02.643Z,21.77
2019-05-28T11:10:37.745Z,17.80
2019-05-28T11:13:28.698Z,15.00
2019-05-28T11:16:23.493Z,21.27
2019-05-28T11:18:57.351Z,15.10
2019-05-28T11:21:44.524Z,26.67
2019-05-28T11:24:32.606Z,20.57
2019-05-28T11:27:18.780Z,15.40
2019-05-28T11:29:52.917Z,17.63
2019-05-28T11:32:38.494Z,22.97
2019-05-28T11:35:11.983Z,22.10
2019-05-28T11:37:45.906Z,14.87
2019-05-28T11:40:23.960Z,14.90
2019-05-28T11:43:06.768Z,14.10
2019-05-28T11:45:44.178Z,18.90
2019-05-28T11:48:20.067Z,15.93
2019-05-28T11:51:03.699Z,21.00
2019-05-28T11:53:40.442Z,17.43
2019-05-28T11:56:16.123Z,23.63
2019-05-28T11:58:50.962Z,21.03
2019-05-28T12:01:34.391Z,18.97
2019-05-28T12:03:58.936Z,21.30
2019-05-28T12:06:43.187Z,17.13
2019-05-28T12:09:19.990Z,28.33
2019-05-28T12:12:06.125Z,18.40
2019-05-28T12:15:10.102Z,16.37
2019-05-28T12:17:42.744Z,14.30
2019-05-28T12:20:45.850Z,18.27
2019-05-28T12:23:38.660Z,15.47
2019-05-28T12:26:16.578Z,26.87
2019-05-28T12:28:49.581Z,18.07
2019-05-28T12:31:23.838Z,21.97
2019-05-28T12:33:57.238Z,20.10
2019-05-28T12:36:41.249Z,24.80
2019-05-28T12:39:24.463Z,19.33
2019-05-28T12:42:07.685Z,20.07
2019-05-28T12:45:08.218Z,17.67
2019-05-28T12:47:26.515Z,27.57
2019-05-28T12:50:18.875Z,16.33
2019-05-28T12:52:58.059Z,19.30
2019-05-28T12:55:33.992Z,20.83
2019-05-28T12:58:18.584Z,21.40
2019-05-28T13:00:53.253Z,34.47
2019-05-28T13:03:26.820Z,21.27
2019-05-28T13:06:05.294Z,15.00
2019-05-28T13:08:37.805Z,20.30
2019-05-28T13:11:12.292Z,20.53
2019-05-28T13:13:46.363Z,17.20
2019-05-28T13:16:39.112Z,14.67
2019-05-28T13:19:23.768Z,17.23
2019-05-28T13:21:58.331Z,21.73
2019-05-28T13:24:32.000Z,14.63
2019-05-28T13:27:17.542Z,22.17
2019-05-28T13:29:42.552Z,18.30
2019-05-28T13:32:16.262Z,15.13
2019-05-28T13:34:50.899Z,16.33
2019-05-28T13:37:25.807Z,19.57
2019-05-28T13:40:00.820Z,20.10
2019-05-28T13:42:38.518Z,14.07
2019-05-28T13:45:12.290Z,19.53
2019-05-28T13:47:50.104Z,14.77
2019-05-28T13:50:24.021Z,11.93
2019-05-28T13:52:59.131Z,9.77
2019-05-28T13:55:31.831Z,16.37
2019-05-28T13:58:04.590Z,13.90
2019-05-28T14:00:45.514Z,11.77
2019-05-28T14:03:19.931Z,14.27
2019-05-28T14:05:54.082Z,7.80
2019-05-28T14:08:46.567Z,16.67
2019-05-28T14:11:11.288Z,12.87
2019-05-28T14:13:46.614Z,13.43
2019-05-28T14:16:26.354Z,15.47
2019-05-28T14:18:59.901Z,21.23
2019-05-28T14:21:33.998Z,25.67
2019-05-28T14:24:08.321Z,14.30
2019-05-28T14:26:42.633Z,22.80
2019-05-28T14:29:16.204Z,11.97
2019-05-28T14:31:51.459Z,18.70
2019-05-28T14:34:27.213Z,12.37
2019-05-28T14:37:00.798Z,16.10
2019-05-28T14:39:41.104Z,13.07
2019-05-28T14:42:26.040Z,9.43
2019-05-28T14:45:08.076Z,10.70
2019-05-28T14:47:45.456Z,12.30
2019-05-28T14:50:18.229Z,10.47
2019-05-28T14:53:10.649Z,17.03
2019-05-28T14:55:45.425Z,8.50
2019-05-28T14:58:41.762Z,10.77
2019-05-28T15:01:41.993Z,5.50
2019-05-28T15:04:23.202Z,12.13
2019-05-28T15:07:13.721Z,5.70
2019-05-28T15:10:01.805Z,5.90
2019-05-28T15:12:35.759Z,18.20
2019-05-28T15:15:11.672Z,19.07
2019-05-28T15:17:46.411Z,8.00
2019-05-28T15:20:19.495Z,10.37
2019-05-28T15:22:53.267Z,27.70
2019-05-28T15:25:28.018Z,9.63
2019-05-28T15:28:02.012Z,14.73
2019-05-28T15:30:37.751Z,12.77
2019-05-28T15:33:18.029Z,10.00
2019-05-28T15:35:55.895Z,8.93
2019-05-28T15:38:27.311Z,10.37
2019-05-28T15:41:01.782Z,14.73
2019-05-28T15:44:07.672Z,8.60
2019-05-28T15:46:41.053Z,22.10
2019-05-28T15:49:15.683Z,23.83
2019-05-28T15:52:07.230Z,20.23
2019-05-28T15:54:34.498Z,15.30
2019-05-28T15:57:08.129Z,24.67
2019-05-28T15:59:44.622Z,17.83
2019-05-28T16:02:18.892Z,23.67
2019-05-28T16:04:53.721Z,15.17
2019-05-28T16:07:28.932Z,14.10
2019-05-28T16:10:07.966Z,5.27
2019-05-28T16:12:42.877Z,14.77
2019-05-28T16:15:19.673Z,16.17
2019-05-28T16:17:54.407Z,13.90
2019-05-28T16:20:29.677Z,8.77
2019-05-28T16:23:12.132Z,9.10
2019-05-28T16:25:46.384Z,19.90
2019-05-28T16:28:18.713Z,7.13
2019-05-28T16:31:11.142Z,15.10
2019-05-28T16:33:28.588Z,22.47
2019-05-28T16:36:01.150Z,14.93
2019-05-28T16:38:34.607Z,15.33
2019-05-28T16:41:07.279Z,7.53
2019-05-28T16:43:42.217Z,11.47
2019-05-28T16:46:18.172Z,26.87
2019-05-28T16:48:52.732Z,10.33
2019-05-28T16:51:26.980Z,11.90
2019-05-28T16:54:18.711Z,22.23
2019-05-28T16:56:41.502Z,9.43
2019-05-28T16:59:14.670Z,7.93
2019-05-28T17:01:48.408Z,12.10
2019-05-28T17:04:23.196Z,12.33
2019-05-28T17:07:07.630Z,16.07
2019-05-28T17:09:42.726Z,6.43
2019-05-28T17:12:20.873Z,14.67
2019-05-28T17:14:54.292Z,12.10
2019-05-28T17:17:39.444Z,11.60
2019-05-28T17:20:23.047Z,7.73
2019-05-28T17:22:57.010Z,10.93
2019-05-28T17:25:38.987Z,10.67
2019-05-28T17:28:25.576Z,9.30
2019-05-28T17:30:59.320Z,17.57
2019-05-28T17:33:33.253Z,17.00
2019-05-28T17:36:07.195Z,26.73
2019-05-28T17:38:40.783Z,8.23
2019-05-28T17:41:15.525Z,9.17
2019-05-28T17:43:50.099Z,12.60
2019-05-28T17:46:24.140Z,10.53
2019-05-28T17:49:06.329Z,20.63
2019-05-28T17:51:42.235Z,19.37
2019-05-28T17:54:17.609Z,10.00
2019-05-28T17:56:51.604Z,14.27
2019-05-28T17:59:24.797Z,12.10
2019-05-28T18:01:59.310Z,13.80
2019-05-28T18:04:34.092Z,21.27
2019-05-28T18:07:41.940Z,25.93
2019-05-28T18:10:34.538Z,11.63
2019-05-28T18:13:08.865Z,15.17
2019-05-28T18:15:49.630Z,16.90
2019-05-28T18:18:59.731Z,10.23
2019-05-28T18:21:45.178Z,12.27
2019-05-28T18:25:06.822Z,8.73
2019-05-28T18:28:45.228Z,10.97
2019-05-28T18:31:34.576Z,13.67
2019-05-28T18:34:09.049Z,22.83
2019-05-28T18:36:42.421Z,14.83
2019-05-28T18:39:15.848Z,21.13
2019-05-28T18:41:50.331Z,19.90
2019-05-28T18:44:24.539Z,28.20
2019-05-28T18:47:14.434Z,20.03
2019-05-28T18:49:48.442Z,24.33
2019-05-28T18:52:25.427Z,24.67
2019-05-28T18:54:58.339Z,33.33
2019-05-28T18:57:32.706Z,13.83
2019-05-28T19:00:27.801Z,23.07
2019-05-28T19:03:01.805Z,12.47
2019-05-28T19:05:36.171Z,28.63
2019-05-28T19:08:10.269Z,20.10
2019-05-28T19:10:43.364Z,15.67
2019-05-28T19:13:17.295Z,18.90
2019-05-28T19:15:54.915Z,12.33
2019-05-28T19:18:28.669Z,9.30
2019-05-28T19:21:02.579Z,15.90
2019-05-28T19:23:38.413Z,14.63
2019-05-28T19:26:17.941Z,31.63
2019-05-28T19:28:50.449Z,11.97
2019-05-28T19:31:25.771Z,18.87
2019-05-28T19:34:00.120Z,14.87
2019-05-28T19:36:35.352Z,18.40
2019-05-28T19:39:09.945Z,13.97
2019-05-28T19:41:53.646Z,21.63
2019-05-28T19:44:19.771Z,21.37
2019-05-28T19:46:54.013Z,19.30
2019-05-28T19:49:27.155Z,14.63
2019-05-28T19:52:41.490Z,19.67
2019-05-28T19:55:15.397Z,14.37
2019-05-28T19:57:51.302Z,18.20
2019-05-28T20:00:33.750Z,21.03
2019-05-28T20:03:11.144Z,16.37
2019-05-28T20:05:45.731Z,33.93
2019-05-28T20:08:22.922Z,14.90
2019-05-28T20:10:57.403Z,14.33
2019-05-28T20:13:31.473Z,12.77
2019-05-28T20:16:05.678Z,14.20
2019-05-28T20:18:45.545Z,21.13
2019-05-28T20:21:40.618Z,15.13
2019-05-28T20:24:14.941Z,13.80
2019-05-28T20:26:56.017Z,16.93
2019-05-28T20:29:37.833Z,14.27
2019-05-28T20:32:11.994Z,21.10
2019-05-28T20:34:44.205Z,45.90
2019-05-28T20:37:17.456Z,24.50
2019-05-28T20:39:56.974Z,15.33
2019-05-28T20:42:48.771Z,21.53
2019-05-28T20:45:28.895Z,10.80
2019-05-28T20:48:12.693Z,15.67
2019-05-28T20:50:47.559Z,13.70
2019-05-28T20:53:35.178Z,16.37
2019-05-28T20:55:59.785Z,20.20
2019-05-28T20:58:40.099Z,14.23
2019-05-28T21:01:11.285Z,37.40
2019-05-28T21:03:51.576Z,28.90
2019-05-28T21:06:26.735Z,23.03
2019-05-28T21:09:01.518Z,10.63
2019-05-28T21:11:36.938Z,16.90
2019-05-28T21:14:28.170Z,12.97
2019-05-28T21:17:14.263Z,18.07
2019-05-28T21:19:55.322Z,7.63
2019-05-28T21:22:29.498Z,10.40
2019-05-28T21:25:01.840Z,8.83
2019-05-28T21:27:36.472Z,8.40
2019-05-28T21:30:11.468Z,12.67
2019-05-28T21:32:45.422Z,15.27
2019-05-28T21:35:20.659Z,8.07
2019-05-28T21:37:55.089Z,19.67
2019-05-28T21:40:34.867Z,19.33
2019-05-28T21:43:09.937Z,10.97
2019-05-28T21:45:45.882Z,26.20
2019-05-28T21:48:19.270Z,10.90
2019-05-28T21:50:54.526Z,19.07
2019-05-28T21:53:27.937Z,12.43
2019-05-28T21:56:03.424Z,10.43
2019-05-28T21:58:37.231Z,14.20
2019-05-28T22:01:20.608Z,13.27
2019-05-28T22:03:55.222Z,26.60
2019-05-28T22:06:29.262Z,11.27
2019-05-28T22:09:03.830Z,46.90
2019-05-28T22:11:38.964Z,14.10
2019-05-28T22:14:13.662Z,6.40
2019-05-28T22:16:47.608Z,9.07
2019-05-28T22:19:23.482Z,10.13
2019-05-28T22:21:58.335Z,12.50
2019-05-28T22:24:32.136Z,13.30
2019-05-28T22:27:05.352Z,15.73
2019-05-28T22:29:40.083Z,11.63
2019-05-28T22:32:15.484Z,12.87
2019-05-28T22:34:50.007Z,9.13
2019-05-28T22:37:23.840Z,14.50
2019-05-28T22:39:57.268Z,12.30
2019-05-28T22:42:30.842Z,17.00
2019-05-28T22:45:05.056Z,12.10
2019-05-28T22:47:38.843Z,11.27
2019-05-28T22:50:21.872Z,10.60
2019-05-28T22:52:48.088Z,13.97
2019-05-28T22:55:21.890Z,17.90
2019-05-28T22:57:55.704Z,11.93
2019-05-28T23:00:28.690Z,20.37
2019-05-28T23:03:05.034Z,6.90
2019-05-28T23:05:39.354Z,11.77
2019-05-28T23:08:13.175Z,12.37
2019-05-28T23:10:46.731Z,7.20
2019-05-28T23:13:20.659Z,13.23
2019-05-28T23:15:54.180Z,6.47
2019-05-28T23:18:27.876Z,8.63
2019-05-28T23:21:01.039Z,14.10
2019-05-28T23:23:34.184Z,8.60
2019-05-28T23:26:07.405Z,10.67
2019-05-28T23:28:41.360Z,9.50
2019-05-28T23:31:24.526Z,17.27
2019-05-28T23:34:02.628Z,5.80
2019-05-28T23:36:37.446Z,21.00
2019-05-28T23:39:11.117Z,7.47
2019-05-28T23:41:44.763Z,11.87
2019-05-28T23:44:19.638Z,9.23
2019-05-28T23:46:54.229Z,4.20
2019-05-28T23:49:27.601Z,18.57
2019-05-28T23:52:01.183Z,4.20
2019-05-28T23:54:34.063Z,5.23
2019-05-28T23:57:08.042Z,7.50
2019-05-28T23:59:43.221Z,6.93
